createdAt,value
2019-05-05T00:01:55.446Z,87.20
2019-05-05T00:04:26.775Z,87.26
2019-05-05T00:06:56.806Z,87.26
2019-05-05T00:09:26.907Z,87.06
2019-05-05T00:12:05.288Z,86.75
2019-05-05T00:14:40.162Z,86.97
2019-05-05T00:17:17.531Z,86.54
2019-05-05T00:19:47.636Z,86.66
2019-05-05T00:22:17.661Z,86.70
2019-05-05T00:24:47.846Z,86.76
2019-05-05T00:27:17.917Z,86.82
2019-05-05T00:29:48.015Z,86.48
2019-05-05T00:32:17.978Z,86.47
2019-05-05T00:34:48.265Z,86.58
2019-05-05T00:37:18.329Z,86.19
2019-05-05T00:39:48.420Z,86.41
2019-05-05T00:42:18.490Z,86.28
2019-05-05T00:44:48.576Z,86.41
2019-05-05T00:47:38.445Z,86.07
2019-05-05T00:50:10.616Z,86.20
2019-05-05T00:52:40.650Z,85.36
2019-05-05T00:55:10.932Z,85.94
2019-05-05T00:57:40.973Z,86.84
2019-05-05T01:00:18.389Z,86.20
2019-05-05T01:02:55.402Z,86.72
2019-05-05T01:05:44.832Z,85.94
2019-05-05T01:08:19.145Z,86.00
2019-05-05T01:10:49.240Z,86.56
2019-05-05T01:13:19.376Z,86.84
2019-05-05T01:15:49.757Z,86.48
2019-05-05T01:18:19.791Z,86.47
2019-05-05T01:20:49.894Z,87.19
2019-05-05T01:23:19.933Z,87.48
2019-05-05T01:25:51.022Z,87.31
2019-05-05T01:28:21.083Z,86.73
2019-05-05T01:30:54.899Z,86.12
2019-05-05T01:33:41.560Z,86.02
2019-05-05T01:36:11.657Z,86.70
2019-05-05T01:38:49.170Z,86.63
2019-05-05T01:41:27.902Z,86.99
2019-05-05T01:43:57.837Z,88.15
2019-05-05T01:46:27.938Z,87.27
2019-05-05T01:48:57.973Z,87.70
2019-05-05T01:51:29.072Z,88.30
2019-05-05T01:53:59.105Z,88.45
2019-05-05T01:56:30.539Z,87.63
2019-05-05T01:59:00.674Z,87.63
2019-05-05T02:01:31.183Z,87.34
2019-05-05T02:04:01.316Z,87.58
2019-05-05T02:06:31.427Z,87.97
2019-05-05T02:09:01.570Z,87.33
2019-05-05T02:11:31.665Z,87.14
2019-05-05T02:14:01.714Z,86.90
2019-05-05T02:16:31.813Z,87.23
2019-05-05T02:19:01.850Z,86.46
2019-05-05T02:21:31.943Z,86.19
2019-05-05T02:24:01.983Z,86.88
2019-05-05T02:26:32.084Z,87.03
2019-05-05T02:29:14.229Z,86.74
2019-05-05T02:31:52.035Z,86.85
2019-05-05T02:34:22.068Z,87.65
2019-05-05T02:36:52.163Z,86.55
2019-05-05T02:39:22.198Z,86.41
2019-05-05T02:41:54.771Z,86.91
2019-05-05T02:44:27.037Z,87.02
2019-05-05T02:47:04.880Z,87.03
2019-05-05T02:49:35.946Z,87.35
2019-05-05T02:52:06.636Z,86.77
2019-05-05T02:54:37.878Z,87.47
2019-05-05T02:57:10.125Z,87.11
2019-05-05T02:59:43.475Z,87.07
2019-05-05T03:02:18.691Z,86.58
2019-05-05T03:04:48.834Z,86.08
2019-05-05T03:07:21.428Z,85.96
2019-05-05T03:09:52.057Z,86.92
2019-05-05T03:12:24.324Z,87.03
2019-05-05T03:14:57.374Z,87.01
2019-05-05T03:17:27.370Z,86.12
2019-05-05T03:19:57.701Z,87.38
2019-05-05T03:22:28.098Z,87.24
2019-05-05T03:24:59.028Z,86.98
2019-05-05T03:27:29.618Z,87.51
2019-05-05T03:30:00.691Z,87.92
2019-05-05T03:32:31.203Z,87.29
2019-05-05T03:35:01.273Z,87.04
2019-05-05T03:37:31.372Z,86.94
2019-05-05T03:40:04.263Z,86.97
2019-05-05T03:42:39.535Z,86.65
2019-05-05T03:45:11.372Z,86.34
2019-05-05T03:47:41.557Z,86.71
2019-05-05T03:50:11.620Z,86.72
2019-05-05T03:52:43.844Z,86.71
2019-05-05T03:55:14.057Z,85.26
2019-05-05T03:57:45.052Z,85.55
2019-05-05T04:00:19.076Z,85.77
2019-05-05T04:02:50.730Z,84.99
2019-05-05T04:05:23.555Z,85.11
2019-05-05T04:07:54.547Z,85.41
2019-05-05T04:10:24.777Z,85.96
2019-05-05T04:12:55.878Z,85.50
2019-05-05T04:15:26.041Z,86.03
2019-05-05T04:18:00.708Z,85.21
2019-05-05T04:20:33.758Z,84.52
2019-05-05T04:23:04.053Z,84.94
2019-05-05T04:25:34.973Z,84.94
2019-05-05T04:28:05.299Z,85.42
2019-05-05T04:30:35.356Z,84.60
2019-05-05T04:33:05.534Z,83.91
2019-05-05T04:35:35.590Z,83.71
2019-05-05T04:38:05.777Z,83.49
2019-05-05T04:40:35.841Z,84.21
2019-05-05T04:43:05.933Z,83.01
2019-05-05T04:45:35.992Z,83.12
2019-05-05T04:48:07.647Z,83.83
2019-05-05T04:50:44.075Z,83.73
2019-05-05T04:53:16.594Z,84.24
2019-05-05T04:55:47.220Z,84.32
2019-05-05T04:58:17.302Z,84.32
2019-05-05T05:00:47.341Z,84.20
2019-05-05T05:03:34.661Z,83.22
2019-05-05T05:06:09.514Z,82.49
2019-05-05T05:08:39.597Z,82.79
2019-05-05T05:11:09.624Z,83.24
2019-05-05T05:13:39.703Z,81.90
2019-05-05T05:16:09.732Z,82.68
2019-05-05T05:18:39.814Z,82.14
2019-05-05T05:21:09.835Z,81.83
2019-05-05T05:23:39.921Z,82.54
2019-05-05T05:26:09.950Z,82.29
2019-05-05T05:28:40.045Z,83.64
2019-05-05T05:31:10.076Z,81.87
2019-05-05T05:33:40.178Z,80.47
2019-05-05T05:36:10.213Z,80.96
2019-05-05T05:38:41.108Z,80.91
2019-05-05T05:41:15.460Z,83.24
2019-05-05T05:43:50.238Z,79.53
2019-05-05T05:46:24.001Z,80.24
2019-05-05T05:48:58.381Z,80.23
2019-05-05T05:51:28.407Z,79.74
2019-05-05T05:53:58.492Z,81.28
2019-05-05T05:56:28.419Z,79.96
2019-05-05T05:58:58.518Z,80.61
2019-05-05T06:01:28.565Z,77.48
2019-05-05T06:03:58.627Z,77.93
2019-05-05T06:06:28.690Z,78.28
2019-05-05T06:08:58.779Z,78.32
2019-05-05T06:11:28.836Z,78.04
2019-05-05T06:13:58.918Z,77.92
2019-05-05T06:16:29.155Z,78.10
2019-05-05T06:18:59.244Z,78.58
2019-05-05T06:21:29.311Z,79.12
2019-05-05T06:23:59.487Z,77.36
2019-05-05T06:26:29.549Z,78.18
2019-05-05T06:28:59.639Z,77.16
2019-05-05T06:31:29.699Z,77.14
2019-05-05T06:33:59.787Z,74.61
2019-05-05T06:36:29.846Z,77.06
2019-05-05T06:38:59.945Z,76.21
2019-05-05T06:41:34.409Z,75.95
2019-05-05T06:44:24.627Z,75.69
2019-05-05T06:46:58.783Z,76.27
2019-05-05T06:49:31.233Z,75.64
2019-05-05T06:52:00.691Z,75.07
2019-05-05T06:54:30.776Z,76.84
2019-05-05T06:57:00.803Z,74.86
2019-05-05T06:59:31.193Z,74.37
2019-05-05T07:02:01.220Z,72.40
2019-05-05T07:04:31.317Z,71.80
2019-05-05T07:07:01.344Z,72.73
2019-05-05T07:09:33.451Z,71.20
2019-05-05T07:12:04.514Z,71.45
2019-05-05T07:14:34.838Z,71.98
2019-05-05T07:17:05.275Z,70.85
2019-05-05T07:19:35.864Z,71.57
2019-05-05T07:22:05.879Z,68.49
2019-05-05T07:24:35.987Z,67.71
2019-05-05T07:27:06.062Z,66.09
2019-05-05T07:29:36.240Z,65.25
2019-05-05T07:32:06.276Z,64.90
2019-05-05T07:34:47.283Z,66.25
2019-05-05T07:37:17.313Z,66.26
2019-05-05T07:39:47.443Z,66.83
2019-05-05T07:42:17.549Z,64.27
2019-05-05T07:44:47.643Z,62.96
2019-05-05T07:47:17.671Z,62.46
2019-05-05T07:49:47.950Z,61.16
2019-05-05T07:52:17.990Z,63.25
2019-05-05T07:54:48.150Z,61.67
2019-05-05T07:57:18.203Z,62.92
2019-05-05T07:59:48.682Z,60.88
2019-05-05T08:02:19.262Z,62.59
2019-05-05T08:04:49.724Z,61.67
2019-05-05T08:07:24.007Z,59.03
2019-05-05T08:09:55.298Z,59.58
2019-05-05T08:12:27.566Z,58.12
2019-05-05T08:14:59.531Z,59.39
2019-05-05T08:17:33.986Z,58.56
2019-05-05T08:20:09.536Z,55.65
2019-05-05T08:22:44.396Z,56.77
2019-05-05T08:25:18.393Z,57.51
2019-05-05T08:27:50.480Z,55.20
2019-05-05T08:30:30.613Z,51.53
2019-05-05T08:33:08.697Z,52.35
2019-05-05T08:35:36.565Z,52.66
2019-05-05T08:38:06.911Z,51.94
2019-05-05T08:40:37.360Z,51.11
2019-05-05T08:43:07.803Z,50.79
2019-05-05T08:45:38.288Z,51.32
2019-05-05T08:48:09.038Z,51.36
2019-05-05T08:50:40.093Z,51.83
2019-05-05T08:53:15.562Z,50.29
2019-05-05T08:55:46.912Z,50.13
2019-05-05T08:58:16.943Z,49.91
2019-05-05T09:00:47.077Z,50.05
2019-05-05T09:03:17.527Z,50.34
2019-05-05T09:05:48.283Z,50.29
2019-05-05T09:08:18.743Z,49.42
2019-05-05T09:10:52.101Z,48.63
2019-05-05T09:13:21.352Z,48.44
2019-05-05T09:15:51.500Z,48.87
2019-05-05T09:18:21.528Z,48.28
2019-05-05T09:20:53.754Z,48.92
2019-05-05T09:23:24.129Z,48.87
2019-05-05T09:26:08.017Z,47.93
2019-05-05T09:28:44.473Z,47.10
2019-05-05T09:31:14.709Z,49.52
2019-05-05T09:33:44.792Z,49.32
2019-05-05T09:36:14.952Z,47.80
2019-05-05T09:38:45.160Z,50.56
2019-05-05T09:41:15.540Z,50.27
2019-05-05T09:43:47.956Z,48.66
2019-05-05T09:46:19.595Z,47.99
2019-05-05T09:48:49.609Z,48.81
2019-05-05T09:51:19.721Z,46.88
2019-05-05T09:53:49.751Z,47.21
2019-05-05T09:56:19.896Z,48.32
2019-05-05T09:58:50.067Z,46.43
2019-05-05T10:01:21.761Z,45.62
2019-05-05T10:03:53.901Z,46.33
2019-05-05T10:06:24.418Z,48.96
2019-05-05T10:08:54.860Z,47.08
2019-05-05T10:11:28.158Z,45.42
2019-05-05T10:13:59.587Z,46.71
2019-05-05T10:16:30.352Z,47.47
2019-05-05T10:19:04.532Z,46.77
2019-05-05T10:21:44.464Z,46.51
2019-05-05T10:24:27.917Z,48.02
2019-05-05T10:26:49.403Z,47.71
2019-05-05T10:29:19.486Z,48.56
2019-05-05T10:31:49.768Z,45.05
2019-05-05T10:34:20.706Z,45.65
2019-05-05T10:36:53.905Z,45.57
2019-05-05T10:39:28.889Z,45.11
2019-05-05T10:41:59.003Z,44.52
2019-05-05T10:44:29.150Z,48.03
2019-05-05T10:46:59.261Z,46.95
2019-05-05T10:49:29.405Z,48.24
2019-05-05T10:52:03.981Z,44.37
2019-05-05T10:54:44.187Z,45.41
2019-05-05T10:57:14.525Z,44.34
2019-05-05T10:59:47.316Z,44.94
2019-05-05T11:02:24.786Z,42.53
2019-05-05T11:04:54.652Z,43.77
2019-05-05T11:07:26.789Z,43.90
2019-05-05T11:10:08.778Z,42.85
2019-05-05T11:12:40.174Z,41.25
2019-05-05T11:15:14.901Z,42.90
2019-05-05T11:17:44.649Z,43.03
2019-05-05T11:20:21.929Z,42.09
2019-05-05T11:23:00.334Z,42.77
2019-05-05T11:25:31.220Z,42.03
2019-05-05T11:28:06.596Z,41.62
2019-05-05T11:30:43.519Z,41.69
2019-05-05T11:33:31.396Z,42.52
2019-05-05T11:36:19.267Z,43.90
2019-05-05T11:38:55.289Z,42.91
2019-05-05T11:41:25.379Z,42.11
2019-05-05T11:43:55.470Z,42.63
2019-05-05T11:46:26.851Z,41.07
2019-05-05T11:48:57.204Z,41.91
2019-05-05T11:51:27.334Z,41.52
2019-05-05T11:53:57.550Z,41.96
2019-05-05T11:56:27.598Z,41.33
2019-05-05T11:58:57.692Z,41.39
2019-05-05T12:01:27.955Z,40.97
2019-05-05T12:03:58.648Z,41.44
2019-05-05T12:06:29.700Z,41.18
2019-05-05T12:09:02.569Z,39.29
2019-05-05T12:11:36.001Z,41.88
2019-05-05T12:14:09.547Z,37.63
2019-05-05T12:16:40.021Z,39.40
2019-05-05T12:19:13.704Z,38.67
2019-05-05T12:21:45.247Z,39.39
2019-05-05T12:24:20.240Z,37.22
2019-05-05T12:26:54.259Z,37.51
2019-05-05T12:29:25.815Z,38.41
2019-05-05T12:31:56.595Z,38.63
2019-05-05T12:34:29.630Z,38.69
2019-05-05T12:37:01.941Z,37.85
2019-05-05T12:39:33.589Z,38.69
2019-05-05T12:42:05.113Z,39.08
2019-05-05T12:44:37.464Z,39.03
2019-05-05T12:47:09.737Z,39.13
2019-05-05T12:49:40.518Z,36.87
2019-05-05T12:52:10.793Z,37.71
2019-05-05T12:54:44.169Z,37.05
2019-05-05T12:57:14.605Z,36.68
2019-05-05T12:59:45.072Z,35.30
2019-05-05T13:02:15.264Z,35.75
2019-05-05T13:04:45.391Z,35.58
2019-05-05T13:07:15.410Z,36.47
2019-05-05T13:09:47.801Z,35.70
2019-05-05T13:12:17.843Z,37.68
2019-05-05T13:14:48.390Z,37.42
2019-05-05T13:17:26.250Z,37.32
2019-05-05T13:20:04.265Z,38.00
2019-05-05T13:22:46.372Z,37.65
2019-05-05T13:25:18.054Z,38.17
2019-05-05T13:27:51.708Z,37.24
2019-05-05T13:30:23.680Z,36.23
2019-05-05T13:32:55.577Z,37.27
2019-05-05T13:35:30.264Z,37.85
2019-05-05T13:38:04.663Z,37.01
2019-05-05T13:40:41.427Z,38.31
2019-05-05T13:43:14.487Z,38.14
2019-05-05T13:46:06.049Z,37.33
2019-05-05T13:48:36.704Z,37.96
2019-05-05T13:51:08.760Z,37.98
2019-05-05T13:53:39.500Z,38.94
2019-05-05T13:59:08.681Z,39.74
2019-05-05T14:01:39.563Z,38.04
2019-05-05T14:04:09.703Z,38.00
2019-05-05T14:06:40.398Z,37.91
2019-05-05T14:09:14.069Z,37.72
2019-05-05T14:11:46.560Z,37.14
2019-05-05T14:14:54.746Z,38.74
2019-05-05T14:17:14.803Z,36.90
2019-05-05T14:20:00.399Z,36.34
2019-05-05T14:22:25.756Z,36.02
2019-05-05T14:25:08.875Z,34.86
2019-05-05T14:30:54.139Z,33.54
2019-05-05T14:34:06.716Z,33.41
2019-05-05T14:36:44.145Z,35.52
2019-05-05T14:39:16.790Z,35.41
2019-05-05T14:41:48.388Z,34.68
2019-05-05T14:44:19.060Z,35.00
2019-05-05T14:46:49.320Z,33.43
2019-05-05T14:49:27.199Z,33.81
2019-05-05T14:51:57.559Z,34.14
2019-05-05T14:54:28.318Z,34.37
2019-05-05T14:56:58.721Z,34.85
2019-05-05T14:59:29.190Z,35.45
2019-05-05T15:02:04.188Z,34.99
2019-05-05T15:05:20.390Z,35.51
2019-05-05T15:11:07.145Z,36.19
2019-05-05T15:13:37.650Z,36.27
2019-05-05T15:16:10.066Z,36.46
2019-05-05T15:18:42.480Z,35.21
2019-05-05T15:21:13.929Z,35.57
2019-05-05T15:23:45.123Z,36.72
2019-05-05T15:26:18.291Z,36.07
2019-05-05T15:29:01.222Z,37.42
2019-05-05T15:31:23.776Z,36.49
2019-05-05T15:34:00.155Z,37.14
2019-05-05T15:36:35.746Z,37.47
2019-05-05T15:42:14.825Z,37.36
2019-05-05T15:44:46.569Z,37.06
2019-05-05T15:47:17.177Z,35.98
2019-05-05T15:49:49.176Z,35.10
2019-05-05T15:52:21.006Z,36.34
2019-05-05T15:54:51.661Z,35.69
2019-05-05T15:57:24.182Z,34.95
2019-05-05T16:00:03.590Z,34.47
2019-05-05T16:02:36.099Z,34.05
2019-05-05T16:05:10.051Z,33.55
2019-05-05T16:07:54.304Z,33.71
2019-05-05T16:10:26.191Z,33.73
2019-05-05T16:12:57.149Z,33.46
2019-05-05T16:18:46.536Z,33.81
2019-05-05T16:21:17.409Z,35.17
2019-05-05T16:24:09.918Z,35.19
2019-05-05T16:26:33.377Z,35.00
2019-05-05T16:29:04.161Z,36.40
2019-05-05T16:31:36.984Z,37.01
2019-05-05T16:34:07.476Z,36.48
2019-05-05T16:39:47.787Z,37.27
2019-05-05T16:42:18.932Z,37.91
2019-05-05T16:44:49.385Z,37.51
2019-05-05T16:47:50.179Z,37.73
2019-05-05T16:50:20.876Z,37.52
2019-05-05T16:52:56.266Z,37.22
2019-05-05T16:55:44.875Z,36.33
2019-05-05T16:58:20.584Z,37.13
2019-05-05T17:00:51.080Z,35.67
2019-05-05T17:03:21.195Z,36.04
2019-05-05T17:05:58.153Z,33.76
2019-05-05T17:11:18.846Z,33.58
2019-05-05T17:14:03.909Z,33.06
2019-05-05T17:16:36.914Z,32.65
2019-05-05T17:19:16.549Z,33.49
2019-05-05T17:21:54.726Z,34.92
2019-05-05T17:24:25.039Z,34.35
2019-05-05T17:26:55.847Z,33.92
2019-05-05T17:29:35.771Z,33.89
2019-05-05T17:32:13.814Z,33.56
2019-05-05T17:34:47.218Z,34.50
2019-05-05T17:37:18.276Z,34.57
2019-05-05T17:39:51.740Z,36.32
2019-05-05T17:42:40.477Z,34.79
2019-05-05T17:45:29.030Z,36.10
2019-05-05T17:48:09.714Z,36.30
2019-05-05T17:53:08.608Z,34.84
2019-05-05T17:55:38.399Z,36.08
2019-05-05T17:56:39.178Z,35.78
2019-05-05T17:59:14.924Z,36.77
2019-05-05T18:01:45.846Z,38.17
2019-05-05T18:04:16.887Z,37.38
2019-05-05T18:06:49.954Z,37.28
2019-05-05T18:09:26.411Z,37.10
2019-05-05T18:11:59.045Z,38.96
2019-05-05T18:14:33.548Z,38.90
2019-05-05T18:17:05.827Z,39.41
2019-05-05T18:19:36.976Z,38.79
2019-05-05T18:22:07.862Z,39.58
2019-05-05T18:24:38.176Z,40.57
2019-05-05T18:27:08.341Z,40.95
2019-05-05T18:29:38.494Z,40.77
2019-05-05T18:32:08.633Z,40.66
2019-05-05T18:34:39.513Z,41.87
2019-05-05T18:37:11.855Z,42.23
2019-05-05T18:39:43.896Z,41.66
2019-05-05T18:42:24.547Z,44.38
2019-05-05T18:45:00.107Z,44.69
2019-05-05T18:47:30.876Z,43.62
2019-05-05T18:50:05.226Z,45.01
2019-05-05T18:52:37.114Z,45.85
2019-05-05T18:55:10.325Z,44.74
2019-05-05T18:57:43.533Z,45.13
2019-05-05T19:00:17.894Z,45.99
2019-05-05T19:02:54.310Z,45.40
2019-05-05T19:05:44.063Z,46.92
2019-05-05T19:08:16.600Z,46.10
2019-05-05T19:10:46.841Z,46.54
2019-05-05T19:13:17.267Z,46.31
2019-05-05T19:15:47.854Z,45.99
2019-05-05T19:18:42.167Z,47.09
2019-05-05T19:21:19.959Z,46.83
2019-05-05T19:24:03.868Z,46.34
2019-05-05T19:26:38.833Z,48.42
2019-05-05T19:29:44.156Z,46.13
2019-05-05T19:35:55.987Z,47.60
2019-05-05T19:38:26.120Z,48.90
2019-05-05T19:40:56.516Z,49.08
2019-05-05T19:43:28.939Z,48.82
2019-05-05T19:46:00.624Z,49.17
2019-05-05T19:48:33.850Z,48.99
2019-05-05T19:51:15.820Z,49.58
2019-05-05T19:53:49.248Z,50.30
2019-05-05T19:56:21.249Z,49.53
2019-05-05T19:58:59.207Z,49.25
2019-05-05T20:01:34.530Z,49.25
2019-05-05T20:03:58.202Z,49.75
2019-05-05T20:06:29.730Z,50.75
2019-05-05T20:09:00.211Z,50.10
2019-05-05T20:11:47.486Z,49.54
2019-05-05T20:14:35.996Z,49.77
2019-05-05T20:20:13.871Z,50.58
2019-05-05T20:22:46.859Z,51.74
2019-05-05T20:28:19.163Z,50.78
2019-05-05T20:30:50.554Z,51.10
2019-05-05T20:34:05.169Z,51.42
2019-05-05T20:36:40.484Z,51.90
2019-05-05T20:39:13.857Z,52.86
2019-05-05T20:41:44.492Z,52.83
2019-05-05T20:44:24.677Z,53.41
2019-05-05T20:46:56.514Z,53.26
2019-05-05T20:49:27.616Z,53.97
2019-05-05T20:52:01.020Z,53.66
2019-05-05T20:54:32.867Z,52.99
2019-05-05T20:57:04.535Z,53.41
2019-05-05T20:59:37.870Z,54.23
2019-05-05T21:02:26.235Z,55.32
2019-05-05T21:05:04.044Z,55.34
2019-05-05T21:07:34.772Z,53.55
2019-05-05T21:10:06.882Z,53.65
2019-05-05T21:12:42.358Z,53.59
2019-05-05T21:15:08.701Z,53.91
2019-05-05T21:17:38.893Z,54.77
2019-05-05T21:20:08.998Z,54.84
2019-05-05T21:22:40.624Z,55.25
2019-05-05T21:25:27.404Z,55.94
2019-05-05T21:27:57.478Z,55.15
2019-05-05T21:30:27.516Z,55.86
2019-05-05T21:32:57.595Z,56.11
2019-05-05T21:35:27.640Z,56.49
2019-05-05T21:37:57.707Z,57.14
2019-05-05T21:40:28.097Z,57.58
2019-05-05T21:42:58.310Z,57.70
2019-05-05T21:45:28.378Z,58.33
2019-05-05T21:47:58.468Z,58.17
2019-05-05T21:50:36.179Z,58.83
2019-05-05T21:53:10.840Z,58.49
2019-05-05T21:55:48.217Z,58.90
2019-05-05T21:58:22.547Z,59.45
2019-05-05T22:00:54.818Z,59.55
2019-05-05T22:03:37.983Z,60.04
2019-05-05T22:06:08.241Z,60.54
2019-05-05T22:08:38.330Z,61.18
2019-05-05T22:11:08.374Z,60.15
2019-05-05T22:13:38.485Z,61.42
2019-05-05T22:16:08.536Z,61.56
2019-05-05T22:18:38.638Z,62.18
2019-05-05T22:21:26.450Z,62.39
2019-05-05T22:24:16.272Z,62.54
2019-05-05T22:26:46.430Z,62.65
2019-05-05T22:29:17.293Z,62.90
2019-05-05T22:31:47.537Z,63.00
2019-05-05T22:34:17.636Z,62.88
2019-05-05T22:36:47.677Z,62.48
2019-05-05T22:39:17.826Z,63.07
2019-05-05T22:41:47.865Z,62.80
2019-05-05T22:44:17.953Z,63.20
2019-05-05T22:46:47.997Z,62.72
2019-05-05T22:49:18.100Z,62.73
2019-05-05T22:51:48.137Z,62.52
2019-05-05T22:54:18.241Z,63.21
2019-05-05T22:56:48.295Z,62.91
2019-05-05T22:59:18.407Z,63.48
2019-05-05T23:01:48.456Z,63.48
2019-05-05T23:04:26.065Z,63.92
2019-05-05T23:06:57.694Z,64.76
2019-05-05T23:09:27.793Z,64.84
2019-05-05T23:11:57.826Z,64.83
2019-05-05T23:14:27.933Z,65.38
2019-05-05T23:17:07.679Z,65.73
2019-05-05T23:19:39.443Z,65.98
2019-05-05T23:22:14.608Z,66.33
2019-05-05T23:24:46.474Z,66.23
2019-05-05T23:27:34.578Z,67.05
2019-05-05T23:30:07.126Z,67.32
2019-05-05T23:32:37.157Z,67.19
2019-05-05T23:35:07.274Z,67.08
2019-05-05T23:37:37.341Z,67.04
2019-05-05T23:40:08.138Z,67.55
2019-05-05T23:42:38.194Z,67.28
2019-05-05T23:45:08.390Z,67.67
2019-05-05T23:47:38.459Z,67.62
2019-05-05T23:50:08.579Z,67.37
2019-05-05T23:52:38.657Z,67.43
2019-05-05T23:55:08.956Z,67.56
2019-05-05T23:57:39.025Z,67.22
